Time;durP1;ratioP1;P1;durP2;ratioP2;P2;SDS_P1;SDS_P2;PMS_P1;PMS_P2;Temp;Humidity;BMP_temperature;BMP_pressure;BME280_temperature;BME280_humidity;BME280_pressure;Samples;Min_cycle;Max_cycle;Signal;HPM_P1;HPM_P2
2021/07/12 00:01:42;;;;;;;8.52;7.57;;;26.20;87.00;;;;;;5055468;28;20017;-93
2021/07/12 00:04:08;;;;;;;9.75;7.43;;;26.20;86.50;;;;;;5055609;28;20070;-93
2021/07/12 00:06:33;;;;;;;9.20;7.20;;;26.10;87.00;;;;;;5055603;28;20521;-93
2021/07/12 00:09:00;;;;;;;8.00;7.22;;;26.10;87.10;;;;;;5055403;28;20115;-93
2021/07/12 00:11:27;;;;;;;9.38;7.63;;;26.10;87.00;;;;;;5055542;28;20036;-93
2021/07/12 00:13:53;;;;;;;11.57;7.50;;;26.10;87.00;;;;;;5055444;28;20112;-94
2021/07/12 00:16:19;;;;;;;8.82;7.93;;;26.10;87.00;;;;;;5055173;28;20052;-93
2021/07/12 00:18:45;;;;;;;9.63;8.60;;;26.00;87.20;;;;;;5054958;28;20053;-93
2021/07/12 00:21:10;;;;;;;8.80;8.00;;;26.00;87.50;;;;;;5055224;28;20059;-92
2021/07/12 00:23:36;;;;;;;9.15;8.23;;;26.00;87.90;;;;;;5055456;28;20491;-93
2021/07/12 00:26:03;;;;;;;9.70;8.80;;;26.00;88.40;;;;;;5054978;28;20163;-93
2021/07/12 00:28:30;;;;;;;8.75;7.82;;;25.90;88.80;;;;;;5054936;28;20183;-93
2021/07/12 00:30:56;;;;;;;9.55;8.65;;;25.90;88.90;;;;;;5055076;28;20379;-93
2021/07/12 00:33:21;;;;;;;12.52;9.02;;;25.80;89.20;;;;;;5054939;28;20027;-93
2021/07/12 00:35:47;;;;;;;10.75;8.23;;;25.80;89.50;;;;;;5054887;28;20029;-94
2021/07/12 00:38:13;;;;;;;10.68;8.15;;;25.80;89.40;;;;;;5054809;28;20601;-93
2021/07/12 00:40:39;;;;;;;9.45;8.55;;;25.80;89.70;;;;;;5054837;28;20025;-93
2021/07/12 00:43:05;;;;;;;9.27;8.38;;;25.80;89.90;;;;;;5054742;28;20025;-93
2021/07/12 00:45:32;;;;;;;8.52;7.72;;;25.80;90.00;;;;;;5054581;28;20455;-94
2021/07/12 00:47:59;;;;;;;8.70;7.85;;;25.70;90.00;;;;;;5054595;28;20043;-93
2021/07/12 00:50:30;;;;;;;9.52;8.63;;;25.60;90.30;;;;;;5054584;28;20025;-93
2021/07/12 00:52:56;;;;;;;8.88;8.00;;;25.60;90.40;;;;;;5054753;28;20056;-93
2021/07/12 00:55:38;;;;;;;9.35;8.45;;;25.60;90.60;;;;;;5054783;28;20029;-93
2021/07/12 00:58:10;;;;;;;9.68;8.45;;;25.40;90.80;;;;;;5054436;28;20029;-93
2021/07/12 01:00:37;;;;;;;9.95;8.85;;;25.40;90.90;;;;;;5054412;28;20028;-93
2021/07/12 01:03:03;;;;;;;9.45;8.55;;;25.30;91.10;;;;;;5054361;28;20028;-93
2021/07/12 01:05:31;;;;;;;10.65;8.57;;;25.20;91.20;;;;;;5054243;28;20021;-93
2021/07/12 01:07:58;;;;;;;9.30;8.32;;;25.20;91.30;;;;;;5055371;28;20056;-93
2021/07/12 01:10:25;;;;;;;9.05;8.15;;;25.20;91.50;;;;;;5054561;28;20120;-94
2021/07/12 01:13:03;;;;;;;10.00;8.70;;;25.10;91.60;;;;;;5054135;28;20033;-93
2021/07/12 01:15:38;;;;;;;9.77;8.82;;;25.10;91.60;;;;;;5054165;28;20053;-93
2021/07/12 01:18:16;;;;;;;10.13;8.75;;;25.20;91.70;;;;;;5053763;28;20049;-93
2021/07/12 01:20:47;;;;;;;10.30;8.60;;;25.10;91.80;;;;;;5053795;28;20021;-93
2021/07/12 01:23:13;;;;;;;10.10;9.10;;;25.10;91.90;;;;;;5054045;28;20047;-93
2021/07/12 01:26:16;;;;;;;9.95;9.02;;;25.00;92.00;;;;;;5053873;28;20041;-93
2021/07/12 01:29:03;;;;;;;10.45;9.45;;;25.00;91.90;;;;;;5053470;28;20020;-93
2021/07/12 01:32:03;;;;;;;13.48;9.10;;;25.00;92.20;;;;;;5053860;28;20528;-93
2021/07/12 01:34:40;;;;;;;9.77;8.75;;;24.90;92.20;;;;;;5053940;28;20390;-93
2021/07/12 01:37:36;;;;;;;11.85;9.35;;;25.00;92.30;;;;;;5053980;28;20033;-93
2021/07/12 01:40:13;;;;;;;9.90;8.98;;;25.00;92.60;;;;;;5053981;28;20025;-93
2021/07/12 01:42:57;;;;;;;9.27;8.38;;;24.90;92.60;;;;;;5053563;28;20025;-93
2021/07/12 01:45:29;;;;;;;10.20;9.20;;;24.90;92.50;;;;;;5059082;28;20074;-93
2021/07/12 01:48:11;;;;;;;11.52;10.32;;;24.90;92.50;;;;;;5072966;28;20501;-93
2021/07/12 01:50:47;;;;;;;11.27;10.18;;;24.90;92.30;;;;;;5073433;28;20032;-93
2021/07/12 01:53:24;;;;;;;11.32;10.18;;;24.80;92.40;;;;;;5073457;28;20021;-93
2021/07/12 01:55:49;;;;;;;10.40;9.50;;;24.70;92.50;;;;;;5073610;28;20028;-92
2021/07/12 01:58:42;;;;;;;10.55;9.55;;;24.70;92.60;;;;;;5073296;28;20089;-93
2021/07/12 02:01:12;;;;;;;12.68;9.93;;;24.70;92.60;;;;;;5074464;28;20127;-93
2021/07/12 02:03:38;;;;;;;12.55;11.02;;;24.70;92.70;;;;;;5073413;28;20040;-92
2021/07/12 02:06:07;;;;;;;15.10;11.77;;;24.60;92.70;;;;;;5073366;28;20025;-93
2021/07/12 02:08:34;;;;;;;12.07;10.88;;;24.60;92.90;;;;;;5073322;28;20367;-93
2021/07/12 02:11:00;;;;;;;11.13;10.02;;;24.60;92.90;;;;;;5073350;28;20028;-92
2021/07/12 02:13:27;;;;;;;11.15;10.05;;;24.50;93.00;;;;;;5073180;28;20024;-93
2021/07/12 02:15:57;;;;;;;12.38;10.85;;;24.60;93.10;;;;;;5073373;28;20028;-94
2021/07/12 02:18:26;;;;;;;12.20;11.02;;;24.60;93.20;;;;;;5073137;28;20608;-93
2021/07/12 02:20:54;;;;;;;12.00;10.80;;;24.60;93.40;;;;;;5073365;28;20024;-92
2021/07/12 02:23:21;;;;;;;12.10;11.00;;;24.60;93.50;;;;;;5073463;28;20074;-93
2021/07/12 02:25:47;;;;;;;12.45;11.25;;;24.70;93.70;;;;;;5061440;28;20032;-93
2021/07/12 02:28:14;;;;;;;12.48;11.35;;;24.70;93.80;;;;;;5052960;28;20056;-93
2021/07/12 02:30:43;;;;;;;13.07;11.77;;;24.70;94.00;;;;;;5053009;28;20029;-93
2021/07/12 02:33:10;;;;;;;13.38;11.95;;;24.70;94.10;;;;;;5053073;28;20036;-93
2021/07/12 02:35:36;;;;;;;13.63;12.32;;;24.70;94.20;;;;;;5053264;28;20434;-93
2021/07/12 02:38:03;;;;;;;14.75;13.30;;;24.80;94.40;;;;;;5052959;28;20083;-93
2021/07/12 02:40:30;;;;;;;14.80;13.23;;;24.70;94.50;;;;;;5056446;28;20363;-93
2021/07/12 02:42:57;;;;;;;13.98;12.52;;;24.80;94.70;;;;;;5056918;28;20095;-93
2021/07/12 02:45:25;;;;;;;13.57;12.18;;;24.80;94.80;;;;;;5056932;28;20120;-94
2021/07/12 02:47:52;;;;;;;13.57;12.27;;;24.70;94.90;;;;;;5056974;28;20025;-93
2021/07/12 02:50:18;;;;;;;13.77;12.40;;;24.80;95.00;;;;;;5056889;28;20467;-93
2021/07/12 02:52:51;;;;;;;13.85;12.55;;;24.80;95.20;;;;;;5075630;28;20427;-92
2021/07/12 02:55:17;;;;;;;13.43;12.23;;;24.80;95.40;;;;;;5076838;28;20024;-94
2021/07/12 02:57:44;;;;;;;21.17;12.68;;;24.80;95.40;;;;;;5076804;28;20031;-93
2021/07/12 03:00:11;;;;;;;13.27;12.00;;;24.80;95.50;;;;;;5076933;28;20028;-93
2021/07/12 03:02:37;;;;;;;12.50;11.30;;;24.80;95.50;;;;;;5077338;28;20070;-93
2021/07/12 03:05:08;;;;;;;12.15;10.95;;;24.80;95.50;;;;;;5076649;28;20016;-92
2021/07/12 03:07:40;;;;;;;13.60;11.38;;;24.80;95.20;;;;;;5076984;28;20489;-93
2021/07/12 03:10:13;;;;;;;12.05;10.95;;;24.90;95.30;;;;;;5076519;28;20111;-93
2021/07/12 03:12:53;;;;;;;13.05;10.52;;;24.90;95.30;;;;;;5076428;28;20028;-93
2021/07/12 03:15:27;;;;;;;12.07;10.73;;;25.00;95.00;;;;;;5073015;28;20021;-92
2021/07/12 03:17:56;;;;;;;11.27;10.18;;;25.00;94.70;;;;;;5045127;28;20049;-93
2021/07/12 03:20:23;;;;;;;11.13;9.50;;;25.00;94.30;;;;;;5019937;28;20471;-93
2021/07/12 03:22:55;;;;;;;12.23;9.85;;;25.00;94.20;;;;;;5019986;28;20025;-92
2021/07/12 03:25:28;;;;;;;9.77;8.88;;;25.00;93.80;;;;;;5019836;28;20028;-92
2021/07/12 03:27:57;;;;;;;10.25;9.20;;;25.00;93.60;;;;;;5019808;28;20056;-94
2021/07/12 03:30:25;;;;;;;9.97;8.97;;;25.00;93.60;;;;;;5019679;28;20056;-92
2021/07/12 03:32:52;;;;;;;11.07;9.88;;;25.10;93.50;;;;;;5019628;28;20387;-91
2021/07/12 03:35:19;;;;;;;10.07;9.07;;;25.10;93.40;;;;;;5019573;28;20037;-92
2021/07/12 03:37:45;;;;;;;11.10;10.10;;;25.10;93.30;;;;;;5020265;28;20025;-93
2021/07/12 03:40:12;;;;;;;11.05;9.93;;;25.10;93.20;;;;;;5020386;28;20128;-92
2021/07/12 03:42:38;;;;;;;10.65;9.63;;;25.20;93.20;;;;;;5019734;28;20021;-92
2021/07/12 03:45:06;;;;;;;10.20;9.20;;;25.20;93.20;;;;;;5019633;28;20444;-91
2021/07/12 03:47:34;;;;;;;11.27;10.18;;;25.20;93.00;;;;;;5019308;28;20045;-92
2021/07/12 03:50:12;;;;;;;10.65;9.35;;;25.30;92.90;;;;;;5018933;28;20112;-93
2021/07/12 03:52:41;;;;;;;9.80;8.90;;;25.30;92.90;;;;;;5019210;28;20113;-92
2021/07/12 03:55:07;;;;;;;10.25;9.27;;;25.30;92.90;;;;;;5019255;28;20017;-92
2021/07/12 03:57:33;;;;;;;11.20;9.85;;;25.30;92.80;;;;;;5019003;28;20022;-92
2021/07/12 19:27:00;;;;;;;8.85;7.95;;;22.20;99.90;;;;;;5071288;28;20893;-85
2021/07/12 19:29:26;;;;;;;9.80;8.65;;;22.20;99.90;;;;;;5069865;28;20024;-86
2021/07/12 19:31:52;;;;;;;10.32;8.73;;;22.20;99.90;;;;;;5069792;28;20108;-86
2021/07/12 19:34:17;;;;;;;12.05;10.07;;;22.30;99.90;;;;;;5069949;28;20070;-84
2021/07/12 19:36:43;;;;;;;11.88;10.63;;;22.40;99.90;;;;;;5069893;28;20075;-87
2021/07/12 19:39:09;;;;;;;11.68;10.43;;;22.40;99.90;;;;;;5070023;28;20036;-86
2021/07/12 19:41:35;;;;;;;13.65;10.18;;;22.40;99.90;;;;;;5069780;28;20021;-85
2021/07/12 19:44:01;;;;;;;11.73;10.52;;;22.50;99.90;;;;;;5069862;28;20025;-86
2021/07/12 19:46:27;;;;;;;14.57;10.70;;;22.50;99.90;;;;;;5069007;28;20035;-87
2021/07/12 19:48:53;;;;;;;12.45;10.35;;;22.60;99.90;;;;;;5070017;28;20029;-87
2021/07/12 19:51:19;;;;;;;10.82;9.57;;;22.50;99.90;;;;;;5071092;28;20056;-88
2021/07/12 19:53:45;;;;;;;11.35;9.05;;;22.50;99.90;;;;;;5070040;28;20108;-91
2021/07/12 19:56:11;;;;;;;11.07;8.57;;;22.40;99.90;;;;;;5068177;28;20139;-91
2021/07/12 19:58:37;;;;;;;9.57;8.60;;;22.40;99.90;;;;;;5069924;28;20497;-92
2021/07/12 20:01:03;;;;;;;9.48;8.57;;;22.30;99.90;;;;;;5070865;28;20196;-89
2021/07/12 20:03:29;;;;;;;10.10;9.05;;;22.10;99.90;;;;;;5070146;28;20056;-93
2021/07/12 20:05:55;;;;;;;10.07;9.07;;;22.10;99.90;;;;;;5070085;28;20024;-91
2021/07/12 20:08:21;;;;;;;10.40;9.30;;;22.00;99.90;;;;;;5069979;28;20041;-92
2021/07/12 20:10:47;;;;;;;10.38;9.30;;;22.00;99.90;;;;;;5069802;28;20032;-93
2021/07/12 20:13:16;;;;;;;10.48;9.23;;;22.10;99.90;;;;;;5070673;28;20021;-92
2021/07/12 20:15:42;;;;;;;11.20;9.60;;;22.10;99.90;;;;;;5069605;28;20063;-92
2021/07/12 20:18:08;;;;;;;10.32;9.10;;;21.90;99.90;;;;;;5069803;28;20033;-89
2021/07/12 20:20:35;;;;;;;10.18;9.13;;;21.90;99.90;;;;;;5069769;28;20163;-96
2021/07/12 20:23:04;;;;;;;11.65;8.90;;;21.80;99.90;;;;;;5068986;28;20043;-93
2021/07/12 20:25:31;;;;;;;10.15;9.13;;;21.70;99.90;;;;;;5082174;28;20127;-90
2021/07/12 20:27:58;;;;;;;11.00;9.95;;;21.70;99.90;;;;;;5090353;28;20027;-93
2021/07/12 20:30:26;;;;;;;10.07;9.07;;;21.70;99.90;;;;;;5081835;28;20485;-95
2021/07/12 20:32:52;;;;;;;10.65;9.63;;;21.70;99.90;;;;;;5069653;28;20078;-90
2021/07/12 20:35:19;;;;;;;11.27;10.18;;;21.80;99.90;;;;;;5070349;28;20115;-90
2021/07/12 20:37:46;;;;;;;11.05;9.50;;;21.90;99.90;;;;;;5059570;28;20029;-91
2021/07/12 20:40:18;;;;;;;11.50;10.27;;;21.90;99.90;;;;;;5056049;28;20486;-91
2021/07/12 20:42:44;;;;;;;9.43;8.50;;;22.00;99.90;;;;;;5056370;28;20036;-90
2021/07/12 20:45:11;;;;;;;10.95;9.80;;;22.00;99.90;;;;;;5056502;28;20371;-90
2021/07/12 20:47:37;;;;;;;10.05;9.05;;;22.10;99.90;;;;;;5056199;28;20053;-91
2021/07/12 20:50:08;;;;;;;10.77;9.77;;;22.10;99.90;;;;;;5056649;28;20020;-90
2021/07/12 20:52:37;;;;;;;9.88;8.88;;;22.20;99.90;;;;;;5055766;28;20032;-90
2021/07/12 20:55:07;;;;;;;10.50;9.50;;;22.20;99.90;;;;;;5056547;28;20036;-90
2021/07/12 20:57:33;;;;;;;11.43;9.57;;;22.20;99.90;;;;;;5056979;28;20068;-89
2021/07/12 20:59:59;;;;;;;11.88;9.88;;;22.20;99.90;;;;;;5075701;28;20411;-89
2021/07/12 21:02:25;;;;;;;12.25;11.05;;;22.20;99.90;;;;;;5065446;28;20025;-89
2021/07/12 21:04:50;;;;;;;12.43;11.13;;;22.20;99.90;;;;;;5055866;28;20035;-89
2021/07/12 21:07:16;;;;;;;11.43;10.43;;;22.20;99.90;;;;;;5055826;28;20021;-92
2021/07/12 21:09:43;;;;;;;12.70;11.50;;;22.30;99.90;;;;;;5056376;28;20017;-93
2021/07/12 21:12:10;;;;;;;11.88;10.65;;;22.40;99.90;;;;;;5055379;28;20049;-91
2021/07/12 21:14:37;;;;;;;11.70;10.60;;;22.50;99.90;;;;;;5055271;28;20093;-90
2021/07/12 21:17:03;;;;;;;11.75;10.60;;;22.50;99.90;;;;;;5055149;28;20021;-90
2021/07/12 21:19:29;;;;;;;11.70;10.50;;;22.40;99.90;;;;;;5055549;28;20382;-90
2021/07/12 21:21:54;;;;;;;11.88;10.68;;;22.40;99.90;;;;;;5055367;28;20025;-90
2021/07/12 21:24:20;;;;;;;11.40;10.35;;;22.30;99.90;;;;;;5055249;28;20033;-89
2021/07/12 21:26:46;;;;;;;12.18;10.95;;;22.30;99.90;;;;;;5054921;28;20510;-90
2021/07/12 21:29:12;;;;;;;12.18;10.98;;;22.30;99.90;;;;;;5055454;28;20024;-89
2021/07/12 21:31:37;;;;;;;13.52;11.77;;;22.20;99.90;;;;;;5055175;28;20029;-90
2021/07/12 21:34:09;;;;;;;12.32;11.18;;;22.10;99.90;;;;;;5054943;28;20025;-90
2021/07/12 21:36:35;;;;;;;12.48;11.15;;;22.00;99.90;;;;;;5056038;28;20086;-90
2021/07/12 21:39:00;;;;;;;12.23;10.60;;;22.00;99.90;;;;;;5054979;28;20088;-89
2021/07/12 21:41:26;;;;;;;13.15;11.88;;;22.00;99.90;;;;;;5049766;28;20472;-90
2021/07/12 21:43:52;;;;;;;12.38;11.07;;;22.00;99.90;;;;;;5035062;28;20502;-89
2021/07/12 21:46:18;;;;;;;13.00;11.70;;;22.00;99.90;;;;;;5034677;28;20032;-89
2021/07/12 21:48:44;;;;;;;12.77;11.50;;;22.00;99.90;;;;;;5033758;28;20442;-89
2021/07/12 21:51:11;;;;;;;12.88;11.68;;;22.10;99.90;;;;;;5035799;28;20124;-89
2021/07/12 21:53:37;;;;;;;12.73;11.45;;;22.10;99.90;;;;;;5034752;28;20025;-89
2021/07/12 21:56:03;;;;;;;12.23;11.02;;;22.00;99.90;;;;;;5035171;28;20026;-88
2021/07/12 21:58:28;;;;;;;12.50;11.40;;;22.10;99.90;;;;;;5035206;28;20025;-89
2021/07/12 22:00:55;;;;;;;12.82;11.48;;;22.10;99.90;;;;;;5036025;28;20463;-88
2021/07/12 22:03:21;;;;;;;12.85;11.65;;;22.10;99.90;;;;;;5034634;28;20112;-88
2021/07/12 22:05:47;;;;;;;12.90;11.70;;;22.10;99.90;;;;;;5034380;28;20555;-88
2021/07/12 22:08:12;;;;;;;13.98;12.65;;;22.10;99.90;;;;;;5034321;28;20026;-88
2021/07/12 22:10:46;;;;;;;13.10;11.80;;;22.10;99.90;;;;;;5034164;28;20025;-88
2021/07/12 22:13:12;;;;;;;14.00;12.60;;;22.10;99.90;;;;;;5034045;28;20018;-88
2021/07/12 22:15:38;;;;;;;12.80;11.50;;;22.10;99.90;;;;;;5035027;28;20502;-87
2021/07/12 22:18:06;;;;;;;13.77;12.07;;;22.20;99.90;;;;;;5034005;28;20167;-88
2021/07/12 22:20:33;;;;;;;13.13;11.88;;;22.20;99.90;;;;;;5033874;28;20529;-87
2021/07/12 22:23:07;;;;;;;13.30;11.85;;;22.30;99.90;;;;;;5050586;28;20041;-88
2021/07/12 22:25:33;;;;;;;12.80;11.45;;;22.40;99.90;;;;;;5050151;28;20418;-87
2021/07/12 22:27:59;;;;;;;12.77;11.57;;;22.40;99.90;;;;;;5034776;28;20026;-87
2021/07/12 22:30:30;;;;;;;12.60;11.40;;;22.40;99.90;;;;;;5033785;28;20136;-87
2021/07/12 22:33:02;;;;;;;14.25;12.57;;;22.40;99.90;;;;;;5033663;28;20032;-87
2021/07/12 22:35:28;;;;;;;13.05;11.80;;;22.50;99.90;;;;;;5033563;28;20106;-87
2021/07/12 22:37:54;;;;;;;16.40;13.85;;;22.50;99.90;;;;;;5033504;28;20053;-87
2021/07/12 22:40:20;;;;;;;14.32;12.93;;;22.40;99.90;;;;;;5033400;28;20448;-87
2021/07/12 22:42:46;;;;;;;15.90;14.15;;;22.40;99.90;;;;;;5033321;28;20033;-87
2021/07/12 22:45:12;;;;;;;16.02;14.45;;;22.40;99.90;;;;;;5033345;28;20430;-87
2021/07/12 22:47:38;;;;;;;15.55;13.95;;;22.40;99.90;;;;;;5033246;28;20076;-87
2021/07/12 22:50:08;;;;;;;16.13;13.65;;;22.40;99.90;;;;;;5033198;28;20026;-87
2021/07/12 22:52:34;;;;;;;17.30;13.95;;;22.40;99.90;;;;;;5033235;28;20464;-87
2021/07/12 22:55:00;;;;;;;15.90;14.20;;;22.40;99.90;;;;;;5034321;28;20056;-87
2021/07/12 22:57:26;;;;;;;15.60;14.10;;;22.40;99.90;;;;;;5033059;28;20464;-87
2021/07/12 22:59:52;;;;;;;15.15;13.65;;;22.40;99.90;;;;;;5034019;28;20059;-87
2021/07/12 23:02:17;;;;;;;16.45;14.40;;;22.40;99.90;;;;;;5049794;28;20029;-86
2021/07/12 23:04:43;;;;;;;16.25;13.27;;;22.40;99.90;;;;;;5053105;28;20386;-87
2021/07/12 23:07:09;;;;;;;15.40;13.77;;;22.30;99.90;;;;;;5052882;28;20499;-87
2021/07/12 23:09:36;;;;;;;15.93;13.68;;;22.30;99.90;;;;;;5052861;28;20549;-87
2021/07/12 23:12:03;;;;;;;16.50;14.32;;;22.10;99.90;;;;;;5053053;28;20116;-87
2021/07/12 23:14:29;;;;;;;14.50;12.77;;;22.10;99.90;;;;;;5054359;28;20569;-87
2021/07/12 23:16:54;;;;;;;13.88;12.48;;;21.90;99.90;;;;;;5052784;28;20067;-87
2021/07/12 23:19:20;;;;;;;14.10;12.60;;;21.90;99.90;;;;;;5052886;28;20110;-87
2021/07/12 23:21:47;;;;;;;14.85;13.25;;;21.80;99.90;;;;;;5052796;28;20032;-88
2021/07/12 23:24:13;;;;;;;13.70;12.30;;;21.80;99.90;;;;;;5052840;28;20021;-87
2021/07/12 23:26:38;;;;;;;14.70;13.07;;;21.80;99.90;;;;;;5052550;28;20052;-87
2021/07/12 23:29:04;;;;;;;14.93;13.02;;;21.70;99.90;;;;;;5048532;28;20021;-87
2021/07/12 23:31:30;;;;;;;14.90;13.30;;;21.70;99.90;;;;;;5032814;28;20468;-86
2021/07/12 23:33:56;;;;;;;14.90;13.35;;;21.70;99.90;;;;;;5032934;28;20075;-87
2021/07/12 23:36:22;;;;;;;14.43;12.63;;;21.80;99.90;;;;;;5032908;28;20472;-87
2021/07/12 23:38:47;;;;;;;14.90;13.30;;;21.70;99.90;;;;;;5032797;28;20025;-87
2021/07/12 23:41:13;;;;;;;15.40;13.80;;;21.80;99.90;;;;;;5033969;28;20022;-88
2021/07/12 23:43:39;;;;;;;14.25;12.80;;;21.80;99.90;;;;;;5032853;28;20025;-88
2021/07/12 23:46:04;;;;;;;14.25;12.77;;;21.80;99.90;;;;;;5032797;28;20025;-88
2021/07/12 23:48:30;;;;;;;15.85;14.25;;;21.90;99.90;;;;;;5034190;28;20053;-88
2021/07/12 23:50:56;;;;;;;14.65;13.05;;;21.90;99.90;;;;;;5052908;28;20057;-88
2021/07/12 23:53:22;;;;;;;14.77;13.27;;;21.90;99.90;;;;;;5052807;28;20025;-88
2021/07/12 23:55:47;;;;;;;15.82;14.23;;;21.90;99.90;;;;;;5052972;28;20028;-88
2021/07/12 23:58:13;;;;;;;16.15;14.55;;;21.90;99.90;;;;;;5052795;28;20032;-89
